Time;durP1;ratioP1;P1;durP2;ratioP2;P2;SDS_P1;SDS_P2;PMS_P1;PMS_P2;Temp;Humidity;BMP_temperature;BMP_pressure;BME280_temperature;BME280_humidity;BME280_pressure;Samples;Min_cycle;Max_cycle;Signal;HPM_P1;HPM_P2
2020/12/13 00:02:12;;;;;;;94.90;38.90;;;2.90;93.40;;;;;;4971164;28;19952;-78
2020/12/13 00:04:37;;;;;;;;;;;2.90;93.50;;;;;;4956708;29;20050;-77
2020/12/13 00:07:05;;;;;;;216.80;33.53;;;2.90;93.50;;;;;;4956039;29;20394;-78
2020/12/13 00:09:30;;;;;;;96.00;28.23;;;2.80;93.50;;;;;;4962076;29;20038;-79
2020/12/13 00:11:56;;;;;;;;;;;2.80;93.60;;;;;;4982036;28;20031;-79
2020/12/13 00:14:21;;;;;;;325.02;40.20;;;2.80;93.80;;;;;;4966953;29;19930;-79
2020/12/13 00:16:51;;;;;;;;;;;2.80;93.80;;;;;;4966184;29;20035;-79
2020/12/13 00:19:16;;;;;;;128.25;34.92;;;2.70;93.80;;;;;;4965485;28;20516;-79
2020/12/13 00:21:42;;;;;;;;;;;2.70;93.90;;;;;;4969007;29;20023;-77
2020/12/13 00:24:07;;;;;;;216.00;37.22;;;2.70;93.90;;;;;;4977739;28;20399;-78
2020/12/13 00:26:33;;;;;;;;;;;2.60;93.90;;;;;;4956435;29;20122;-79
2020/12/13 00:28:59;;;;;;;287.25;28.38;;;2.60;93.90;;;;;;4960356;29;19914;-79
2020/12/13 00:31:24;;;;;;;;;;;2.50;94.00;;;;;;4959460;29;20039;-77
2020/12/13 00:33:50;;;;;;;409.48;34.65;;;2.50;93.90;;;;;;4961049;29;19981;-79
2020/12/13 00:36:18;;;;;;;;;;;2.40;94.00;;;;;;4962812;28;20035;-79
2020/12/13 00:38:44;;;;;;;58.42;16.80;;;2.40;94.00;;;;;;4967191;29;19933;-77
2020/12/13 00:41:10;;;;;;;;;;;2.40;94.00;;;;;;4958475;29;20155;-76
2020/12/13 00:43:35;;;;;;;51.58;18.80;;;2.40;94.40;;;;;;4957318;28;19910;-77
2020/12/13 00:46:01;;;;;;;;;;;2.30;94.20;;;;;;4959922;29;20109;-78
2020/12/13 00:48:26;;;;;;;280.30;25.45;;;2.40;94.30;;;;;;4971393;28;20322;-77
2020/12/13 00:50:52;;;;;;;;;;;2.30;94.10;;;;;;4957772;28;20038;-77
2020/12/13 00:53:18;;;;;;;190.10;22.20;;;2.30;94.00;;;;;;4955553;29;20272;-76
2020/12/13 00:55:45;;;;;;;;;;;2.20;94.00;;;;;;4957678;29;20035;-78
2020/12/13 00:58:11;;;;;;;112.80;27.33;;;2.20;94.00;;;;;;4972359;28;19907;-77
2020/12/13 01:00:36;;;;;;;;;;;2.10;94.10;;;;;;4956942;29;20039;-77
2020/12/13 01:03:03;;;;;;;139.00;23.38;;;2.10;94.00;;;;;;4957301;29;19954;-78
2020/12/13 01:05:28;;;;;;;86.07;24.67;;;2.00;94.00;;;;;;4957437;28;20056;-77
2020/12/13 01:07:54;;;;;;;;;;;2.00;94.00;;;;;;4958154;28;20035;-78
2020/12/13 01:10:21;;;;;;;47.75;18.45;;;2.00;94.10;;;;;;4975229;28;19910;-77
2020/12/13 01:12:47;;;;;;;91.53;21.98;;;1.90;94.10;;;;;;4972218;28;20023;-79
2020/12/13 01:15:12;;;;;;;;;;;1.90;94.10;;;;;;4958169;28;20039;-78
2020/12/13 01:17:38;;;;;;;66.93;22.52;;;1.80;94.10;;;;;;4956804;29;19915;-79
2020/12/13 01:20:04;;;;;;;;;;;1.80;94.10;;;;;;4958386;29;20044;-79
2020/12/13 01:22:34;;;;;;;27.65;15.10;;;1.70;94.00;;;;;;4963046;28;19906;-79
2020/12/13 01:25:00;;;;;;;37.45;19.23;;;1.70;94.10;;;;;;4978896;28;20024;-77
2020/12/13 01:27:25;;;;;;;;;;;1.70;94.10;;;;;;4963021;29;20038;-78
2020/12/13 01:29:51;;;;;;;47.83;20.83;;;1.60;94.10;;;;;;4963891;29;19938;-78
2020/12/13 01:32:16;;;;;;;;;;;1.60;94.30;;;;;;4963442;29;20023;-76
2020/12/13 01:34:42;;;;;;;54.80;21.90;;;1.60;94.40;;;;;;4966450;29;19914;-79
2020/12/13 01:37:07;;;;;;;;;;;1.60;94.50;;;;;;4962882;29;20066;-78
2020/12/13 01:39:33;;;;;;;41.22;19.83;;;1.50;94.40;;;;;;4961801;29;20048;-78
2020/12/13 01:41:59;;;;;;;;;;;1.50;94.40;;;;;;4961938;28;20035;-78
2020/12/13 01:44:36;;;;;;;56.00;24.38;;;1.50;94.40;;;;;;4963404;28;19907;-78
2020/12/13 01:47:05;;;;;;;51.17;20.92;;;1.50;94.50;;;;;;4960747;29;20102;-78
2020/12/13 01:49:43;;;;;;;56.38;23.23;;;1.50;94.50;;;;;;4960543;29;20110;-78
2020/12/13 01:55:11;;;;;;;57.83;24.23;;;1.50;94.60;;;;;;4964880;28;20055;-79
2020/12/13 01:57:38;;;;;;;74.00;24.50;;;1.60;94.70;;;;;;4968039;29;20050;-78
2020/12/13 02:00:10;;;;;;;60.72;22.63;;;1.60;94.70;;;;;;4967675;28;20400;-78
2020/12/13 02:02:45;;;;;;;69.68;23.80;;;1.70;94.80;;;;;;4963383;29;20074;-77
2020/12/13 02:05:13;;;;;;;86.90;25.85;;;1.70;94.80;;;;;;4965498;29;20025;-79
2020/12/13 02:07:41;;;;;;;58.60;20.88;;;1.70;94.80;;;;;;4964854;29;20037;-79
2020/12/13 02:10:11;;;;;;;131.43;24.48;;;1.70;95.10;;;;;;4958570;28;20444;-78
2020/12/13 02:12:37;;;;;;;215.30;26.08;;;1.80;94.90;;;;;;4957867;28;20031;-77
2020/12/13 02:15:07;;;;;;;228.75;33.22;;;1.80;94.90;;;;;;4955440;28;20512;-77
2020/12/13 02:17:34;;;;;;;184.15;29.10;;;1.90;95.10;;;;;;4954767;29;20035;-77
2020/12/13 02:20:18;;;;;;;112.80;27.42;;;1.90;95.10;;;;;;4954247;28;20027;-77
2020/12/13 02:22:50;;;;;;;153.88;29.48;;;1.90;95.10;;;;;;4956381;29;20038;-77
2020/12/13 02:25:19;;;;;;;91.18;25.17;;;1.90;95.10;;;;;;4952964;29;20028;-77
2020/12/13 02:27:45;;;;;;;102.00;22.85;;;1.90;94.90;;;;;;4954737;28;20035;-77
2020/12/13 02:30:11;;;;;;;135.57;26.13;;;1.90;94.90;;;;;;4953819;29;20031;-77
2020/12/13 02:32:37;;;;;;;;;;;1.90;95.10;;;;;;4955466;29;20092;-76
2020/12/13 02:35:07;;;;;;;197.07;27.63;;;1.80;94.70;;;;;;4955128;28;19961;-78
2020/12/13 02:37:33;;;;;;;84.88;21.42;;;1.80;94.70;;;;;;4954615;29;20027;-77
2020/12/13 02:39:58;;;;;;;;;;;1.80;94.70;;;;;;4955612;29;20062;-78
2020/12/13 02:42:24;;;;;;;304.58;28.83;;;1.80;94.70;;;;;;4954356;29;19911;-77
2020/12/13 02:44:50;;;;;;;;;;;1.80;94.60;;;;;;4955992;29;20562;-76
2020/12/13 02:47:15;;;;;;;300.70;27.50;;;1.70;94.90;;;;;;4958040;28;20386;-77
2020/12/13 02:49:41;;;;;;;;;;;1.70;94.70;;;;;;4970792;28;20492;-76
2020/12/13 02:52:08;;;;;;;184.30;25.48;;;1.60;94.70;;;;;;4955317;28;19921;-77
2020/12/13 02:54:34;;;;;;;202.82;25.17;;;1.50;94.80;;;;;;4971871;28;20078;-76
2020/12/13 02:56:59;;;;;;;;;;;1.50;94.90;;;;;;4957269;29;20039;-76
2020/12/13 02:59:25;;;;;;;254.90;24.80;;;1.50;94.90;;;;;;4971106;28;19974;-76
2020/12/13 03:01:50;;;;;;;;;;;1.50;95.00;;;;;;4956729;28;20102;-77
2020/12/13 03:04:16;;;;;;;304.13;28.08;;;1.50;95.10;;;;;;4971144;28;19910;-77
2020/12/13 03:06:41;;;;;;;;;;;1.50;95.10;;;;;;4972155;28;20570;-77
2020/12/13 03:09:07;;;;;;;223.05;22.58;;;1.50;95.10;;;;;;4956036;28;19957;-76
2020/12/13 03:11:33;;;;;;;;;;;1.50;95.10;;;;;;4960479;28;20058;-77
2020/12/13 03:13:59;;;;;;;314.20;27.75;;;1.40;95.20;;;;;;4960407;28;19910;-77
2020/12/13 03:16:24;;;;;;;;;;;1.40;95.20;;;;;;4960403;29;20053;-76
2020/12/13 03:18:50;;;;;;;151.82;22.05;;;1.50;95.30;;;;;;4975709;28;19910;-78
2020/12/13 03:21:15;;;;;;;;;;;1.50;95.30;;;;;;4961120;29;20110;-77
2020/12/13 03:23:41;;;;;;;86.50;17.10;;;1.50;95.30;;;;;;4960720;29;19914;-77
2020/12/13 03:26:07;;;;;;;;;;;1.50;95.40;;;;;;4960210;29;20495;-78
2020/12/13 03:28:32;;;;;;;116.72;17.40;;;1.50;95.40;;;;;;4974806;28;19930;-77
2020/12/13 03:30:58;;;;;;;;;;;1.60;95.40;;;;;;4959887;29;20031;-77
2020/12/13 03:33:23;;;;;;;311.08;27.80;;;1.60;95.40;;;;;;4959132;29;19921;-77
2020/12/13 03:35:49;;;;;;;;;;;1.60;95.20;;;;;;4960685;29;20046;-78
2020/12/13 03:38:14;;;;;;;262.45;25.50;;;1.50;95.10;;;;;;4959452;28;19981;-77
2020/12/13 03:40:40;;;;;;;;;;;1.50;95.20;;;;;;4960984;29;20110;-77
2020/12/13 03:43:06;;;;;;;228.00;22.40;;;1.50;95.20;;;;;;4962241;29;19907;-79
2020/12/13 03:45:31;;;;;;;;;;;1.50;95.20;;;;;;4961613;29;20078;-78
2020/12/13 03:47:57;;;;;;;256.45;25.25;;;1.50;95.20;;;;;;4975866;28;20167;-78
2020/12/13 03:50:22;;;;;;;;;;;1.50;95.10;;;;;;4961556;28;20507;-78
2020/12/13 03:52:48;;;;;;;133.05;21.00;;;1.40;95.10;;;;;;4975770;28;20363;-78
2020/12/13 03:55:13;;;;;;;;;;;1.40;95.20;;;;;;4976788;28;20163;-78
2020/12/13 03:57:40;;;;;;;266.02;27.77;;;1.40;95.20;;;;;;4959249;29;20382;-77
2020/12/13 04:00:06;;;;;;;237.70;23.60;;;1.40;95.30;;;;;;4962449;29;20027;-78
2020/12/13 04:02:32;;;;;;;;;;;1.50;95.30;;;;;;4963536;29;20119;-78
2020/12/13 04:04:57;;;;;;;334.27;32.05;;;1.40;95.30;;;;;;4960792;29;20421;-77
2020/12/13 04:07:23;;;;;;;;;;;1.40;95.30;;;;;;4975078;28;20027;-77
2020/12/13 04:09:48;;;;;;;238.82;25.13;;;1.40;95.30;;;;;;4976293;28;19911;-79
2020/12/13 04:12:14;;;;;;;;;;;1.40;95.30;;;;;;4977693;28;20043;-78
2020/12/13 04:14:40;;;;;;;312.73;26.52;;;1.40;95.30;;;;;;4962683;29;19930;-79
2020/12/13 04:17:05;;;;;;;;;;;1.40;95.40;;;;;;4961593;28;20035;-78
2020/12/13 04:19:31;;;;;;;273.83;26.30;;;1.40;95.40;;;;;;4959952;29;19913;-78
2020/12/13 04:22:01;;;;;;;174.27;22.80;;;1.40;95.40;;;;;;4959198;28;20038;-78
2020/12/13 04:24:26;;;;;;;154.77;19.98;;;1.40;95.30;;;;;;4962749;28;20078;-78
2020/12/13 04:26:52;;;;;;;;;;;1.40;95.30;;;;;;4959453;29;20031;-78
2020/12/13 04:29:17;;;;;;;271.55;28.98;;;1.40;95.40;;;;;;4960430;29;19910;-77
2020/12/13 04:31:43;;;;;;;;;;;1.50;95.40;;;;;;4960180;29;20046;-78
2020/12/13 04:34:08;;;;;;;420.15;32.83;;;1.50;95.50;;;;;;4958513;29;20379;-77
2020/12/13 04:36:34;;;;;;;;;;;1.50;95.40;;;;;;4958261;29;20047;-77
2020/12/13 04:39:00;;;;;;;223.45;22.95;;;1.40;95.40;;;;;;4958277;29;19911;-75
2020/12/13 04:41:25;;;;;;;;;;;1.40;95.40;;;;;;4958032;29;20587;-77
2020/12/13 04:43:52;;;;;;;215.52;20.73;;;1.50;95.40;;;;;;4974195;28;19910;-76
2020/12/13 04:46:18;;;;;;;371.35;24.98;;;1.40;95.30;;;;;;4959219;28;20051;-77
2020/12/13 04:48:43;;;;;;;;;;;1.40;95.30;;;;;;4978032;28;20046;-77
2020/12/13 04:51:10;;;;;;;325.55;26.02;;;1.40;95.30;;;;;;4959236;28;19917;-77
2020/12/13 04:53:39;;;;;;;238.82;23.83;;;1.40;95.30;;;;;;4959316;28;20102;-77
2020/12/13 04:56:10;;;;;;;325.05;25.42;;;1.30;95.30;;;;;;4959477;28;20411;-76
2020/12/13 04:58:36;;;;;;;221.15;21.30;;;1.30;95.30;;;;;;4958245;28;20035;-77
2020/12/13 05:01:03;;;;;;;;;;;1.30;95.30;;;;;;4957459;28;20031;-77
2020/12/13 05:03:29;;;;;;;282.02;23.38;;;1.30;95.60;;;;;;4974225;28;19906;-76
2020/12/13 05:06:00;;;;;;;62.92;14.85;;;1.20;95.60;;;;;;4959494;28;20476;-77
2020/12/13 05:08:26;;;;;;;251.57;25.08;;;1.20;95.30;;;;;;4959246;28;20062;-76
2020/12/13 05:10:52;;;;;;;;;;;1.20;95.60;;;;;;4959935;28;20082;-76
2020/12/13 05:13:17;;;;;;;263.48;24.42;;;1.20;95.40;;;;;;4962407;28;19910;-76
2020/12/13 05:15:43;;;;;;;;;;;1.20;95.40;;;;;;4959458;29;20043;-77
2020/12/13 05:18:08;;;;;;;39.80;14.18;;;1.20;95.40;;;;;;4957754;29;21074;-77
2020/12/13 05:20:34;;;;;;;;;;;1.30;95.50;;;;;;4958184;29;20031;-77
2020/12/13 05:23:01;;;;;;;74.90;15.60;;;1.30;95.50;;;;;;4957262;29;19914;-77
2020/12/13 05:25:33;;;;;;;154.13;21.08;;;1.30;95.40;;;;;;4958774;28;20051;-75
2020/12/13 05:28:01;;;;;;;66.82;18.65;;;1.30;95.40;;;;;;4973875;28;20031;-77
2020/12/13 05:30:35;;;;;;;175.93;22.23;;;1.20;95.30;;;;;;4958583;28;20106;-77
2020/12/13 05:33:07;;;;;;;109.53;20.95;;;1.20;95.40;;;;;;4958948;28;20046;-77
2020/12/13 05:35:33;;;;;;;86.28;19.50;;;1.20;95.40;;;;;;4974236;28;20089;-77
2020/12/13 05:37:58;;;;;;;;;;;1.30;95.50;;;;;;4962175;29;20046;-77
2020/12/13 05:40:25;;;;;;;130.75;22.95;;;1.30;95.50;;;;;;4956793;29;19914;-78
2020/12/13 05:43:02;;;;;;;48.65;15.30;;;1.30;95.60;;;;;;4958550;28;20138;-77
2020/12/13 05:53:21;;;;;;;147.73;23.10;;;1.40;95.50;;;;;;4957814;29;20053;-77
2020/12/13 05:55:47;;;;;;;311.70;30.20;;;1.40;95.40;;;;;;4956538;29;20047;-77
2020/12/13 05:58:13;;;;;;;;;;;1.40;95.40;;;;;;4956125;29;20490;-78
2020/12/13 06:00:40;;;;;;;147.00;22.98;;;1.40;95.40;;;;;;4958346;29;19911;-77
2020/12/13 06:03:06;;;;;;;133.18;21.08;;;1.40;95.50;;;;;;4958608;29;20058;-78
2020/12/13 06:05:38;;;;;;;;;;;1.40;95.40;;;;;;4963561;28;20027;-78
2020/12/13 06:08:05;;;;;;;192.40;23.88;;;1.30;95.40;;;;;;4963026;28;19910;-78
2020/12/13 06:10:34;;;;;;;146.15;25.98;;;1.40;95.40;;;;;;4961569;28;20042;-77
2020/12/13 06:13:08;;;;;;;83.38;23.45;;;1.30;95.40;;;;;;4961294;29;20031;-78
2020/12/13 06:15:35;;;;;;;88.35;24.17;;;1.40;95.50;;;;;;4962497;29;20126;-78
2020/12/13 06:18:02;;;;;;;110.07;25.65;;;1.40;95.50;;;;;;4961770;29;20037;-79
2020/12/13 06:20:28;;;;;;;78.60;23.48;;;1.40;95.50;;;;;;4948587;29;20023;-76
2020/12/13 06:22:55;;;;;;;;;;;1.40;95.40;;;;;;4962044;28;20035;-76
2020/12/13 06:25:21;;;;;;;51.75;18.15;;;1.40;95.40;;;;;;4964204;28;19910;-77
2020/12/13 06:27:49;;;;;;;82.90;38.83;;;1.40;95.40;;;;;;4938107;29;20024;-78
2020/12/13 06:30:16;;;;;;;65.10;35.97;;;1.40;95.30;;;;;;4953969;29;20039;-78
2020/12/13 06:32:42;;;;;;;57.08;27.63;;;1.40;95.30;;;;;;4942810;29;20042;-76
2020/12/13 06:35:09;;;;;;;68.28;21.67;;;1.30;95.10;;;;;;4938744;29;20035;-77
2020/12/13 06:37:38;;;;;;;89.18;21.83;;;1.30;95.50;;;;;;4953830;29;20095;-78
2020/12/13 06:40:06;;;;;;;70.10;22.35;;;1.30;95.20;;;;;;4939414;29;20066;-76
2020/12/13 06:42:39;;;;;;;78.72;23.38;;;1.30;95.20;;;;;;4939240;29;20019;-77
2020/12/13 06:45:10;;;;;;;151.48;25.45;;;1.30;95.20;;;;;;4963351;28;20029;-77
2020/12/13 06:47:44;;;;;;;54.35;18.17;;;1.30;95.20;;;;;;4949223;29;20059;-77
2020/12/13 06:50:19;;;;;;;61.25;19.33;;;1.30;95.20;;;;;;4954128;29;20463;-77
2020/12/13 06:52:45;;;;;;;32.83;14.18;;;1.30;95.20;;;;;;4964440;28;20031;-76
2020/12/13 06:55:11;;;;;;;35.42;16.75;;;1.30;95.20;;;;;;4950535;29;20114;-77
2020/12/13 06:57:37;;;;;;;35.05;15.38;;;1.30;95.20;;;;;;4951182;28;20055;-76
2020/12/13 07:00:03;;;;;;;;;;;1.30;95.20;;;;;;4963968;28;20035;-77
2020/12/13 07:02:48;;;;;;;34.35;14.00;;;1.30;95.20;;;;;;4943067;29;19907;-77
2020/12/13 07:05:14;;;;;;;55.75;19.40;;;1.30;95.20;;;;;;4941566;29;20150;-76
2020/12/13 07:07:40;;;;;;;;;;;1.40;95.20;;;;;;4942796;29;20501;-76
2020/12/13 07:10:09;;;;;;;143.73;55.05;;;1.40;95.20;;;;;;4940828;29;19907;-77
2020/12/13 07:12:36;;;;;;;130.95;59.53;;;1.40;95.10;;;;;;4945832;29;20032;-77
2020/12/13 07:15:17;;;;;;;124.88;55.03;;;1.40;95.00;;;;;;4943289;29;20492;-77
2020/12/13 07:17:43;;;;;;;117.72;53.83;;;1.40;95.00;;;;;;4957825;29;20016;-76
2020/12/13 07:20:09;;;;;;;;;;;1.60;95.00;;;;;;4954943;29;20047;-78
2020/12/13 07:22:35;;;;;;;77.25;36.10;;;1.70;94.90;;;;;;4936107;29;19933;-77
2020/12/13 07:25:01;;;;;;;;;;;2.00;94.70;;;;;;4953321;29;20035;-77
2020/12/13 07:27:27;;;;;;;137.15;64.82;;;2.20;94.30;;;;;;4936421;29;19961;-77
2020/12/13 07:29:55;;;;;;;108.07;57.33;;;2.40;94.10;;;;;;4951920;29;20481;-76
2020/12/13 07:32:22;;;;;;;110.80;57.50;;;2.70;93.60;;;;;;4936714;29;20507;-78
2020/12/13 07:34:48;;;;;;;143.55;74.93;;;2.90;93.30;;;;;;4937326;29;20023;-77
2020/12/13 07:37:14;;;;;;;;;;;3.10;92.60;;;;;;4955137;29;21146;-80
2020/12/13 07:39:40;;;;;;;110.28;63.83;;;3.20;91.80;;;;;;4937296;29;20417;-76
2020/12/13 07:42:07;;;;;;;;;;;3.20;91.50;;;;;;4937723;29;20106;-77
2020/12/13 07:44:33;;;;;;;93.65;50.40;;;3.30;91.40;;;;;;4952530;29;20006;-77
2020/12/13 07:46:58;;;;;;;;;;;3.50;91.40;;;;;;4937742;29;20126;-77
2020/12/13 07:49:24;;;;;;;56.38;32.45;;;3.70;91.00;;;;;;4937335;29;19939;-77
2020/12/13 07:51:51;;;;;;;;;;;3.80;90.70;;;;;;4938511;29;20028;-78
2020/12/13 07:54:24;;;;;;;40.95;20.17;;;3.90;90.00;;;;;;4936831;29;19918;-77
2020/12/13 07:56:58;;;;;;;18.85;11.93;;;4.20;89.60;;;;;;4953194;29;20134;-77
2020/12/13 07:59:28;;;;;;;14.73;9.63;;;4.20;87.60;;;;;;4937422;29;20090;-77
2020/12/13 08:01:58;;;;;;;11.70;8.25;;;4.20;87.40;;;;;;4953420;29;20252;-78
2020/12/13 08:04:38;;;;;;;11.02;7.70;;;4.20;88.10;;;;;;4952624;29;20064;-77
2020/12/13 08:07:06;;;;;;;11.18;7.90;;;4.20;88.00;;;;;;4938965;29;20043;-78
2020/12/13 08:09:32;;;;;;;10.55;7.13;;;4.20;88.00;;;;;;4936452;29;20024;-78
2020/12/13 08:11:58;;;;;;;13.02;8.55;;;4.30;88.60;;;;;;4952447;29;20044;-76
2020/12/13 08:14:24;;;;;;;;;;;4.40;87.60;;;;;;4952844;29;20032;-77
2020/12/13 08:16:55;;;;;;;14.88;10.20;;;4.40;86.60;;;;;;4937376;29;19915;-78
2020/12/13 08:19:42;;;;;;;9.30;7.30;;;4.40;87.10;;;;;;4952740;29;20032;-78
2020/12/13 08:22:26;;;;;;;8.95;6.55;;;4.60;86.50;;;;;;4952197;29;20034;-78
2020/12/13 08:25:05;;;;;;;8.43;5.90;;;4.80;85.90;;;;;;4953249;29;20070;-80
2020/12/13 08:27:34;;;;;;;11.68;6.90;;;4.90;84.60;;;;;;4936795;29;20058;-79
2020/12/13 08:30:00;;;;;;;10.48;8.07;;;5.00;84.40;;;;;;4935396;29;20114;-78
2020/12/13 08:32:36;;;;;;;12.13;8.10;;;5.20;84.70;;;;;;4937383;29;20027;-78
2020/12/13 08:35:18;;;;;;;10.20;8.05;;;5.20;84.20;;;;;;4949618;28;20040;-79
2020/12/13 08:37:57;;;;;;;13.35;10.38;;;5.40;84.80;;;;;;4937508;29;20036;-79
2020/12/13 08:40:43;;;;;;;64.28;39.28;;;5.50;84.40;;;;;;4949606;29;20059;-79
2020/12/13 08:43:17;;;;;;;18.08;13.43;;;5.70;83.90;;;;;;4934441;29;20474;-82
2020/12/13 08:45:50;;;;;;;19.55;14.98;;;6.10;83.80;;;;;;4934168;29;20039;-84
2020/12/13 08:48:24;;;;;;;30.70;16.90;;;6.80;81.80;;;;;;4934096;29;20031;-78
2020/12/13 08:51:10;;;;;;;21.80;14.63;;;7.40;78.00;;;;;;4948972;28;20028;-80
2020/12/13 08:53:36;;;;;;;19.50;14.55;;;7.90;76.30;;;;;;4943759;28;20055;-78
2020/12/13 08:56:09;;;;;;;;;;;8.20;75.20;;;;;;4953701;28;20099;-80
2020/12/13 08:59:01;;;;;;;26.27;16.95;;;8.20;74.20;;;;;;4934051;29;20280;-81
2020/12/13 09:01:29;;;;;;;20.88;13.55;;;8.30;75.30;;;;;;4933815;29;20036;-83
2020/12/13 09:03:56;;;;;;;19.23;12.32;;;8.30;72.30;;;;;;4936147;29;20514;-80
2020/12/13 09:06:32;;;;;;;20.85;13.90;;;8.30;73.00;;;;;;4953015;28;20478;-84
2020/12/13 09:09:10;;;;;;;;;;;8.00;72.80;;;;;;4946307;28;20507;-85
2020/12/13 09:11:36;;;;;;;26.77;19.58;;;7.70;73.90;;;;;;4953452;28;20295;-83
2020/12/13 09:14:02;;;;;;;;;;;7.40;75.60;;;;;;4968222;28;20046;-77
2020/12/13 09:16:29;;;;;;;47.55;32.50;;;7.20;75.60;;;;;;4959456;28;19918;-77
2020/12/13 09:19:21;;;;;;;56.45;35.05;;;6.90;76.90;;;;;;4944054;29;20563;-79
2020/12/13 09:21:58;;;;;;;105.97;64.20;;;6.70;78.10;;;;;;4939905;29;20386;-80
2020/12/13 09:24:33;;;;;;;67.22;43.40;;;6.50;79.20;;;;;;4941608;29;20027;-78
2020/12/13 09:27:01;;;;;;;68.35;42.53;;;6.40;79.20;;;;;;4948801;29;20205;-78
2020/12/13 09:29:28;;;;;;;72.75;44.10;;;6.30;80.40;;;;;;4948984;29;20505;-78
2020/12/13 09:31:53;;;;;;;77.05;45.70;;;6.20;81.30;;;;;;4949416;29;20118;-79
2020/12/13 09:34:20;;;;;;;;;;;6.10;81.60;;;;;;4933452;29;20132;-80
2020/12/13 09:36:45;;;;;;;70.88;42.10;;;6.10;81.50;;;;;;4948920;29;19970;-79
2020/12/13 09:39:11;;;;;;;;;;;6.00;82.30;;;;;;4936122;29;20032;-77
2020/12/13 09:41:36;;;;;;;56.55;34.55;;;6.00;82.70;;;;;;4934125;29;19911;-80
2020/12/13 09:44:02;;;;;;;;;;;6.00;82.50;;;;;;4934351;29;20039;-78
2020/12/13 09:46:28;;;;;;;70.80;44.65;;;6.10;82.30;;;;;;4934009;29;19954;-79
2020/12/13 09:48:53;;;;;;;;;;;6.10;82.40;;;;;;4934288;29;20047;-78
2020/12/13 09:51:19;;;;;;;51.25;32.33;;;6.10;81.60;;;;;;4948403;28;19911;-79
2020/12/13 09:53:45;;;;;;;;;;;6.10;81.70;;;;;;4950482;29;20052;-76
2020/12/13 09:56:14;;;;;;;66.30;43.78;;;6.00;83.00;;;;;;4951687;28;19930;-78
2020/12/13 09:58:40;;;;;;;63.40;39.30;;;6.00;82.20;;;;;;4953928;28;20131;-81
2020/12/13 10:01:06;;;;;;;;;;;6.00;82.80;;;;;;4968188;28;20039;-81
2020/12/13 10:03:31;;;;;;;58.30;35.00;;;6.10;82.80;;;;;;4954851;28;20048;-78
2020/12/13 10:06:47;;;;;;;;;;;6.10;82.80;;;;;;4953040;28;20031;-78
2020/12/13 10:11:27;;;;;;;47.38;27.88;;;6.00;82.90;;;;;;4953916;28;20134;-79
2020/12/13 10:13:52;;;;;;;45.40;29.58;;;6.00;83.70;;;;;;4953979;28;20035;-80
2020/12/13 10:16:18;;;;;;;;;;;6.00;83.40;;;;;;4949252;29;20568;-78
2020/12/13 10:18:43;;;;;;;44.65;28.25;;;5.90;83.40;;;;;;4936069;29;20054;-78
2020/12/13 10:21:09;;;;;;;54.00;33.35;;;5.90;84.10;;;;;;4948771;29;20024;-81
2020/12/13 10:23:35;;;;;;;;;;;5.90;83.90;;;;;;4935255;29;20095;-80
2020/12/13 10:26:00;;;;;;;44.03;25.65;;;5.90;84.10;;;;;;4950686;29;19966;-82
2020/12/13 10:28:26;;;;;;;;;;;6.00;84.30;;;;;;4935892;29;20028;-79
2020/12/13 10:30:52;;;;;;;41.00;24.15;;;6.00;84.10;;;;;;4949154;29;19907;-78
2020/12/13 10:33:17;;;;;;;;;;;6.10;83.90;;;;;;4949104;29;20436;-76
2020/12/13 10:35:44;;;;;;;54.75;37.58;;;6.10;83.20;;;;;;4948071;29;19915;-80
2020/12/13 10:38:10;;;;;;;56.92;34.67;;;6.20;83.50;;;;;;4933674;29;20028;-77
2020/12/13 10:40:37;;;;;;;46.40;30.40;;;6.30;84.10;;;;;;4932233;29;20072;-78
2020/12/13 10:43:03;;;;;;;52.65;34.80;;;6.30;83.60;;;;;;4948297;29;20039;-78
2020/12/13 10:45:29;;;;;;;;;;;6.50;83.50;;;;;;4934053;29;20032;-79
2020/12/13 10:47:55;;;;;;;43.63;27.50;;;6.60;82.80;;;;;;4932999;29;20350;-77
2020/12/13 10:50:21;;;;;;;41.08;28.45;;;6.60;82.70;;;;;;4933281;29;20036;-80
2020/12/13 10:52:46;;;;;;;;;;;6.70;82.60;;;;;;4934243;29;20107;-79
2020/12/13 10:55:12;;;;;;;51.17;34.78;;;6.80;82.60;;;;;;4931518;29;19933;-77
2020/12/13 10:57:38;;;;;;;;;;;6.90;82.80;;;;;;4938819;29;20047;-78
2020/12/13 11:00:04;;;;;;;47.45;31.17;;;6.90;82.30;;;;;;4959559;28;19921;-78
2020/12/13 11:02:30;;;;;;;47.25;32.70;;;6.90;82.40;;;;;;4963304;28;20035;-80
2020/12/13 11:04:55;;;;;;;;;;;6.90;82.90;;;;;;4948262;29;20171;-79
2020/12/13 11:07:21;;;;;;;46.20;28.17;;;7.00;82.70;;;;;;4963471;28;19911;-78
2020/12/13 11:09:47;;;;;;;;;;;7.00;82.50;;;;;;4947834;29;20126;-80
2020/12/13 11:12:12;;;;;;;40.63;24.60;;;7.10;82.90;;;;;;4963550;28;19910;-82
2020/12/13 11:14:38;;;;;;;;;;;7.20;82.60;;;;;;4948564;29;20043;-83
2020/12/13 11:17:03;;;;;;;34.80;22.00;;;7.20;82.70;;;;;;4932914;29;19925;-77
2020/12/13 11:19:29;;;;;;;;;;;7.20;82.20;;;;;;4932721;29;20031;-79
2020/12/13 11:21:57;;;;;;;33.83;19.20;;;7.30;82.20;;;;;;4947367;29;19921;-79
2020/12/13 11:24:22;;;;;;;32.35;20.45;;;7.30;82.50;;;;;;4932485;29;20028;-79
2020/12/13 11:26:48;;;;;;;;;;;7.30;81.90;;;;;;4947651;29;20026;-79
2020/12/13 11:29:14;;;;;;;29.67;18.50;;;7.30;82.10;;;;;;4947132;29;19910;-79
2020/12/13 11:31:39;;;;;;;;;;;7.30;82.40;;;;;;4947465;29;20118;-79
2020/12/13 11:34:05;;;;;;;32.80;20.00;;;7.30;82.80;;;;;;4950687;29;19958;-79
2020/12/13 11:36:30;;;;;;;;;;;7.30;83.00;;;;;;4950955;29;20150;-77
2020/12/13 11:38:56;;;;;;;41.03;26.05;;;7.30;82.50;;;;;;4951624;28;19911;-83
2020/12/13 11:41:25;;;;;;;;;;;7.30;83.40;;;;;;4936284;29;20552;-77
2020/12/13 11:43:51;;;;;;;45.90;27.02;;;7.30;82.60;;;;;;4935575;29;19914;-80
2020/12/13 11:46:17;;;;;;;;;;;7.30;82.80;;;;;;4936004;29;20031;-79
2020/12/13 11:48:42;;;;;;;33.92;21.23;;;7.40;82.70;;;;;;4935326;29;20005;-80
2020/12/13 11:51:08;;;;;;;;;;;7.40;82.60;;;;;;4950220;28;20041;-79
2020/12/13 11:53:33;;;;;;;29.98;20.05;;;7.40;82.60;;;;;;4935291;29;20431;-79
2020/12/13 11:55:59;;;;;;;;;;;7.50;83.10;;;;;;4935707;29;20071;-79
2020/12/13 11:58:24;;;;;;;35.58;20.73;;;7.40;82.30;;;;;;4950086;29;19941;-79
2020/12/13 12:00:50;;;;;;;;;;;7.40;82.70;;;;;;4950405;28;20035;-78
2020/12/13 12:03:15;;;;;;;31.13;18.80;;;7.40;81.90;;;;;;4951509;28;19954;-79
2020/12/13 12:05:41;;;;;;;;;;;7.50;82.60;;;;;;4935544;29;20039;-79
2020/12/13 12:08:06;;;;;;;35.08;21.45;;;7.50;82.80;;;;;;4949834;29;19962;-80
2020/12/13 12:10:32;;;;;;;;;;;7.50;82.60;;;;;;4950393;29;20122;-80
2020/12/13 12:12:57;;;;;;;34.15;20.00;;;7.50;82.40;;;;;;4935388;29;19911;-81
2020/12/13 12:15:23;;;;;;;;;;;7.50;82.40;;;;;;4936467;29;20047;-80
2020/12/13 12:17:49;;;;;;;31.35;17.65;;;7.50;83.00;;;;;;4936654;29;19914;-78
2020/12/13 12:20:18;;;;;;;;;;;7.40;82.80;;;;;;4935714;29;20039;-77
2020/12/13 12:22:45;;;;;;;29.27;17.45;;;7.40;83.00;;;;;;4935216;29;19977;-77
2020/12/13 12:25:11;;;;;;;32.95;20.65;;;7.40;83.10;;;;;;4950678;29;20028;-79
2020/12/13 12:27:37;;;;;;;42.80;24.52;;;7.40;83.20;;;;;;4937600;29;20042;-79
2020/12/13 12:30:05;;;;;;;;;;;7.40;82.50;;;;;;4950243;29;20036;-80
2020/12/13 12:32:30;;;;;;;33.50;21.40;;;7.30;82.90;;;;;;4950017;29;19910;-77
2020/12/13 12:34:56;;;;;;;;;;;7.20;83.20;;;;;;4934040;29;20488;-78
2020/12/13 12:37:22;;;;;;;36.20;21.55;;;7.20;83.50;;;;;;4935309;29;19918;-78
2020/12/13 12:39:48;;;;;;;37.72;22.58;;;7.10;83.70;;;;;;4935498;29;20031;-78
2020/12/13 12:42:14;;;;;;;;;;;7.10;84.20;;;;;;4950928;29;20036;-79
2020/12/13 12:44:39;;;;;;;33.85;21.00;;;7.00;84.60;;;;;;4935187;29;19926;-78
2020/12/13 12:47:05;;;;;;;;;;;6.90;85.30;;;;;;4936329;29;20024;-80
2020/12/13 12:49:31;;;;;;;27.80;17.38;;;6.90;85.60;;;;;;4936281;29;19910;-79
2020/12/13 12:51:56;;;;;;;;;;;6.80;86.00;;;;;;4936839;29;20038;-79
2020/12/13 12:54:22;;;;;;;25.38;16.08;;;6.70;86.30;;;;;;4951232;29;20426;-79
2020/12/13 12:56:47;;;;;;;;;;;6.70;86.40;;;;;;4951898;29;20583;-79
2020/12/13 12:59:22;;;;;;;31.05;18.25;;;6.60;86.60;;;;;;4936245;29;19918;-77
2020/12/13 13:01:51;;;;;;;36.93;19.87;;;6.60;87.00;;;;;;4937910;29;20051;-79
2020/12/13 13:04:22;;;;;;;41.17;21.83;;;6.50;87.30;;;;;;4938053;29;20441;-77
2020/12/13 13:06:58;;;;;;;30.75;17.88;;;6.40;87.50;;;;;;4952355;29;20090;-80
2020/12/13 13:09:28;;;;;;;35.33;19.15;;;6.40;88.20;;;;;;4937590;29;20051;-80
2020/12/13 13:11:54;;;;;;;33.17;19.90;;;6.30;88.30;;;;;;4937749;29;20059;-77
2020/12/13 13:14:20;;;;;;;;;;;6.30;88.50;;;;;;4939973;29;20035;-78
2020/12/13 13:16:46;;;;;;;37.83;21.02;;;6.30;88.80;;;;;;4968535;28;19925;-76
2020/12/13 13:19:18;;;;;;;37.75;19.63;;;6.30;88.90;;;;;;4936720;29;20024;-79
2020/12/13 13:21:45;;;;;;;34.45;18.73;;;6.30;88.90;;;;;;4951524;29;20032;-79
2020/12/13 13:24:11;;;;;;;36.10;20.17;;;6.30;89.20;;;;;;4938425;29;20036;-79